sensor_id;sensor_type;location;lat;lon;timestamp;pressure;altitude;pressure_sealevel;temperature;humidity
53514;BME280;39768;54.148;12.174;2023-01-30T00:00:38;100565.47;;;6.24;100.00
53514;BME280;39768;54.148;12.174;2023-01-30T00:04:39;100561.97;;;6.42;100.00
53514;BME280;39768;54.148;12.174;2023-01-30T00:08:41;100569.03;;;6.47;100.00
53514;BME280;39768;54.148;12.174;2023-01-30T00:12:42;100565.50;;;6.57;100.00
53514;BME280;39768;54.148;12.174;2023-01-30T00:16:44;100556.72;;;6.58;100.00
53514;BME280;39768;54.148;12.174;2023-01-30T00:20:45;100543.53;;;6.40;100.00
53514;BME280;39768;54.148;12.174;2023-01-30T00:24:46;100526.81;;;6.55;100.00
53514;BME280;39768;54.148;12.174;2023-01-30T00:28:48;100511.88;;;6.54;100.00
53514;BME280;39768;54.148;12.174;2023-01-30T00:32:56;100507.47;;;6.63;100.00
53514;BME280;39768;54.148;12.174;2023-01-30T00:36:58;100490.78;;;6.64;100.00
53514;BME280;39768;54.148;12.174;2023-01-30T00:41:08;100482.00;;;6.67;100.00
53514;BME280;39768;54.148;12.174;2023-01-30T00:45:11;100457.34;;;6.77;100.00
53514;BME280;39768;54.148;12.174;2023-01-30T00:49:31;100434.53;;;6.55;100.00
53514;BME280;39768;54.148;12.174;2023-01-30T00:53:33;100407.25;;;6.65;100.00
53514;BME280;39768;54.148;12.174;2023-01-30T00:57:35;100402.00;;;6.60;100.00
53514;BME280;39768;54.148;12.174;2023-01-30T01:01:36;100401.06;;;6.80;100.00
53514;BME280;39768;54.148;12.174;2023-01-30T01:05:38;100422.16;;;6.75;100.00
53514;BME280;39768;54.148;12.174;2023-01-30T01:09:40;100405.47;;;6.71;100.00
53514;BME280;39768;54.148;12.174;2023-01-30T01:13:41;100396.63;;;6.85;100.00
53514;BME280;39768;54.148;12.174;2023-01-30T01:17:43;100383.47;;;6.79;100.00
53514;BME280;39768;54.148;12.174;2023-01-30T01:21:44;100379.06;;;6.78;100.00
53514;BME280;39768;54.148;12.174;2023-01-30T01:25:46;100357.91;;;6.93;100.00
53514;BME280;39768;54.148;12.174;2023-01-30T01:29:47;100349.19;;;6.74;100.00
53514;BME280;39768;54.148;12.174;2023-01-30T01:33:50;100344.72;;;6.84;100.00
53514;BME280;39768;54.148;12.174;2023-01-30T01:37:52;100328.78;;;7.10;100.00
53514;BME280;39768;54.148;12.174;2023-01-30T01:41:54;100325.38;;;6.86;100.00
53514;BME280;39768;54.148;12.174;2023-01-30T01:46:00;100312.16;;;6.94;100.00
53514;BME280;39768;54.148;12.174;2023-01-30T01:50:04;100305.06;;;7.02;100.00
53514;BME280;39768;54.148;12.174;2023-01-30T01:54:17;100282.34;;;6.81;100.00
53514;BME280;39768;54.148;12.174;2023-01-30T01:58:25;100264.75;;;6.77;100.00
53514;BME280;39768;54.148;12.174;2023-01-30T02:02:28;100269.16;;;6.75;100.00
53514;BME280;39768;54.148;12.174;2023-01-30T02:06:30;100283.13;;;6.94;100.00
53514;BME280;39768;54.148;12.174;2023-01-30T02:10:46;100259.44;;;6.85;100.00
53514;BME280;39768;54.148;12.174;2023-01-30T02:14:51;100243.47;;;7.03;100.00
53514;BME280;39768;54.148;12.174;2023-01-30T02:18:54;100242.69;;;6.93;100.00
53514;BME280;39768;54.148;12.174;2023-01-30T02:28:09;100238.38;;;6.82;100.00
53514;BME280;39768;54.148;12.174;2023-01-30T02:32:31;100218.09;;;6.87;100.00
53514;BME280;39768;54.148;12.174;2023-01-30T02:45:04;100185.38;;;7.07;100.00
53514;BME280;39768;54.148;12.174;2023-01-30T02:49:14;100192.56;;;6.92;100.00
53514;BME280;39768;54.148;12.174;2023-01-30T02:53:18;100181.09;;;6.96;100.00
53514;BME280;39768;54.148;12.174;2023-01-30T02:57:22;100178.38;;;7.05;100.00
53514;BME280;39768;54.148;12.174;2023-01-30T03:10:37;100161.53;;;7.18;100.00
53514;BME280;39768;54.148;12.174;2023-01-30T03:14:50;100145.81;;;7.06;100.00
53514;BME280;39768;54.148;12.174;2023-01-30T03:18:53;100138.81;;;7.02;100.00
53514;BME280;39768;54.148;12.174;2023-01-30T03:22:54;100139.34;;;7.37;100.00
53514;BME280;39768;54.148;12.174;2023-01-30T03:27:06;100141.28;;;7.20;100.00
53514;BME280;39768;54.148;12.174;2023-01-30T03:31:10;100117.38;;;7.35;100.00
53514;BME280;39768;54.148;12.174;2023-01-30T03:35:11;100113.72;;;7.46;100.00
53514;BME280;39768;54.148;12.174;2023-01-30T03:39:13;100092.88;;;7.23;100.00
53514;BME280;39768;54.148;12.174;2023-01-30T03:43:15;100084.66;;;7.49;100.00
53514;BME280;39768;54.148;12.174;2023-01-30T03:47:16;100083.63;;;7.59;100.00
53514;BME280;39768;54.148;12.174;2023-01-30T03:51:19;100087.41;;;7.41;100.00
53514;BME280;39768;54.148;12.174;2023-01-30T03:55:22;100083.72;;;7.53;100.00
53514;BME280;39768;54.148;12.174;2023-01-30T03:59:23;100084.53;;;7.58;100.00
53514;BME280;39768;54.148;12.174;2023-01-30T04:03:33;100091.38;;;7.74;100.00
53514;BME280;39768;54.148;12.174;2023-01-30T04:07:34;100083.44;;;7.75;100.00
53514;BME280;39768;54.148;12.174;2023-01-30T04:11:36;100081.69;;;7.74;100.00
53514;BME280;39768;54.148;12.174;2023-01-30T04:15:37;100108.22;;;7.67;100.00
53514;BME280;39768;54.148;12.174;2023-01-30T04:20:06;100107.13;;;7.83;100.00
53514;BME280;39768;54.148;12.174;2023-01-30T04:24:10;100096.66;;;7.74;100.00
53514;BME280;39768;54.148;12.174;2023-01-30T04:28:11;100088.69;;;7.78;100.00
53514;BME280;39768;54.148;12.174;2023-01-30T04:32:14;100071.81;;;7.87;100.00
53514;BME280;39768;54.148;12.174;2023-01-30T04:36:16;100065.53;;;7.97;100.00
53514;BME280;39768;54.148;12.174;2023-01-30T04:40:19;100070.25;;;7.74;100.00
53514;BME280;39768;54.148;12.174;2023-01-30T04:44:20;100056.03;;;7.86;100.00
53514;BME280;39768;54.148;12.174;2023-01-30T04:48:33;100058.66;;;7.86;100.00
53514;BME280;39768;54.148;12.174;2023-01-30T04:52:36;100067.50;;;7.82;100.00
53514;BME280;39768;54.148;12.174;2023-01-30T04:56:41;100054.31;;;7.82;100.00
53514;BME280;39768;54.148;12.174;2023-01-30T05:00:44;100078.19;;;7.72;100.00
53514;BME280;39768;54.148;12.174;2023-01-30T05:04:48;100065.75;;;7.82;100.00
53514;BME280;39768;54.148;12.174;2023-01-30T05:08:51;100061.41;;;7.75;100.00
53514;BME280;39768;54.148;12.174;2023-01-30T05:12:53;100047.00;;;8.00;100.00
53514;BME280;39768;54.148;12.174;2023-01-30T05:16:54;100051.53;;;7.89;100.00
53514;BME280;39768;54.148;12.174;2023-01-30T05:21:07;100052.44;;;7.87;100.00
53514;BME280;39768;54.148;12.174;2023-01-30T05:25:09;100056.81;;;7.91;100.00
53514;BME280;39768;54.148;12.174;2023-01-30T05:29:10;100052.41;;;7.91;100.00
53514;BME280;39768;54.148;12.174;2023-01-30T05:33:12;100044.41;;;7.97;100.00
53514;BME280;39768;54.148;12.174;2023-01-30T05:37:14;100062.03;;;7.97;100.00
53514;BME280;39768;54.148;12.174;2023-01-30T05:41:16;100054.25;;;7.86;100.00
53514;BME280;39768;54.148;12.174;2023-01-30T05:45:18;100060.31;;;7.93;100.00
53514;BME280;39768;54.148;12.174;2023-01-30T05:49:19;100047.59;;;8.18;100.00
53514;BME280;39768;54.148;12.174;2023-01-30T05:53:23;100032.72;;;8.12;100.00
53514;BME280;39768;54.148;12.174;2023-01-30T05:57:25;100041.88;;;7.88;100.00
53514;BME280;39768;54.148;12.174;2023-01-30T06:01:27;100048.09;;;7.84;100.00
53514;BME280;39768;54.148;12.174;2023-01-30T06:05:29;100049.28;;;7.62;100.00
53514;BME280;39768;54.148;12.174;2023-01-30T06:09:30;100043.75;;;7.80;100.00
53514;BME280;39768;54.148;12.174;2023-01-30T06:13:33;100049.25;;;7.63;100.00
53514;BME280;39768;54.148;12.174;2023-01-30T06:17:34;100051.00;;;7.66;100.00
53514;BME280;39768;54.148;12.174;2023-01-30T06:21:36;100052.63;;;7.73;100.00
53514;BME280;39768;54.148;12.174;2023-01-30T06:25:37;100047.47;;;7.67;100.00
53514;BME280;39768;54.148;12.174;2023-01-30T06:29:39;100054.69;;;7.53;100.00
53514;BME280;39768;54.148;12.174;2023-01-30T06:33:40;100062.69;;;7.43;100.00
53514;BME280;39768;54.148;12.174;2023-01-30T06:37:44;100068.75;;;7.53;100.00
53514;BME280;39768;54.148;12.174;2023-01-30T06:41:46;100068.75;;;7.55;100.00
53514;BME280;39768;54.148;12.174;2023-01-30T06:45:47;100066.84;;;7.66;100.00
53514;BME280;39768;54.148;12.174;2023-01-30T06:49:49;100076.34;;;7.79;100.00
53514;BME280;39768;54.148;12.174;2023-01-30T06:53:50;100084.41;;;7.70;100.00
53514;BME280;39768;54.148;12.174;2023-01-30T06:58:01;100077.47;;;7.60;100.00
53514;BME280;39768;54.148;12.174;2023-01-30T07:02:04;100079.22;;;7.61;100.00
53514;BME280;39768;54.148;12.174;2023-01-30T07:06:05;100071.31;;;7.58;100.00
53514;BME280;39768;54.148;12.174;2023-01-30T07:10:07;100091.44;;;7.71;100.00
53514;BME280;39768;54.148;12.174;2023-01-30T07:14:09;100091.34;;;7.75;100.00
53514;BME280;39768;54.148;12.174;2023-01-30T07:18:11;100117.19;;;7.54;100.00
53514;BME280;39768;54.148;12.174;2023-01-30T07:22:13;100106.88;;;7.28;100.00
53514;BME280;39768;54.148;12.174;2023-01-30T07:26:15;100109.94;;;6.84;100.00
53514;BME280;39768;54.148;12.174;2023-01-30T07:30:17;100093.31;;;6.76;100.00
53514;BME280;39768;54.148;12.174;2023-01-30T07:34:19;100097.00;;;6.53;100.00
53514;BME280;39768;54.148;12.174;2023-01-30T07:38:20;100101.44;;;6.50;100.00
53514;BME280;39768;54.148;12.174;2023-01-30T07:42:21;100064.75;;;6.21;100.00
53514;BME280;39768;54.148;12.174;2023-01-30T07:46:23;100086.66;;;6.27;100.00
53514;BME280;39768;54.148;12.174;2023-01-30T07:50:24;100071.78;;;6.22;100.00
53514;BME280;39768;54.148;12.174;2023-01-30T07:54:26;100077.88;;;6.25;100.00
53514;BME280;39768;54.148;12.174;2023-01-30T07:58:27;100075.31;;;6.18;100.00
53514;BME280;39768;54.148;12.174;2023-01-30T08:02:31;100070.03;;;6.18;100.00
53514;BME280;39768;54.148;12.174;2023-01-30T08:06:32;100063.81;;;6.31;100.00
53514;BME280;39768;54.148;12.174;2023-01-30T08:10:39;100077.00;;;6.25;100.00
53514;BME280;39768;54.148;12.174;2023-01-30T08:14:40;100080.41;;;6.42;100.00
53514;BME280;39768;54.148;12.174;2023-01-30T08:18:42;100080.38;;;6.48;100.00
53514;BME280;39768;54.148;12.174;2023-01-30T08:22:43;100062.69;;;6.59;100.00
53514;BME280;39768;54.148;12.174;2023-01-30T08:26:47;100042.38;;;6.69;100.00
53514;BME280;39768;54.148;12.174;2023-01-30T08:30:48;100055.53;;;6.75;100.00
53514;BME280;39768;54.148;12.174;2023-01-30T08:34:50;100057.22;;;6.82;100.00
53514;BME280;39768;54.148;12.174;2023-01-30T08:38:52;100081.66;;;6.98;100.00
53514;BME280;39768;54.148;12.174;2023-01-30T08:42:54;100097.94;;;6.48;100.00
53514;BME280;39768;54.148;12.174;2023-01-30T08:46:55;100128.25;;;5.63;100.00
53514;BME280;39768;54.148;12.174;2023-01-30T08:50:57;100121.28;;;5.42;100.00
53514;BME280;39768;54.148;12.174;2023-01-30T08:54:58;100124.84;;;5.30;100.00
53514;BME280;39768;54.148;12.174;2023-01-30T08:59:00;100108.13;;;5.36;100.00
53514;BME280;39768;54.148;12.174;2023-01-30T09:03:01;100111.63;;;5.40;100.00
53514;BME280;39768;54.148;12.174;2023-01-30T09:07:03;100106.25;;;5.75;100.00
53514;BME280;39768;54.148;12.174;2023-01-30T09:11:05;100096.69;;;5.51;100.00
53514;BME280;39768;54.148;12.174;2023-01-30T09:15:07;100091.34;;;5.71;100.00
53514;BME280;39768;54.148;12.174;2023-01-30T09:19:09;100080.75;;;5.84;100.00
53514;BME280;39768;54.148;12.174;2023-01-30T09:23:10;100097.44;;;5.92;100.00
53514;BME280;39768;54.148;12.174;2023-01-30T09:27:12;100121.16;;;5.89;100.00
53514;BME280;39768;54.148;12.174;2023-01-30T09:31:13;100115.97;;;5.57;100.00
53514;BME280;39768;54.148;12.174;2023-01-30T09:35:17;100122.16;;;5.44;100.00
53514;BME280;39768;54.148;12.174;2023-01-30T09:39:41;100089.75;;;5.27;100.00
53514;BME280;39768;54.148;12.174;2023-01-30T09:44:23;100073.09;;;5.31;100.00
53514;BME280;39768;54.148;12.174;2023-01-30T09:57:07;100054.13;;;6.30;100.00
53514;BME280;39768;54.148;12.174;2023-01-30T10:06:12;100038.19;;;6.45;100.00
53514;BME280;39768;54.148;12.174;2023-01-30T10:10:33;100047.84;;;6.49;100.00
53514;BME280;39768;54.148;12.174;2023-01-30T10:23:51;100023.03;;;6.70;100.00
53514;BME280;39768;54.148;12.174;2023-01-30T10:28:40;100033.56;;;6.71;100.00
53514;BME280;39768;54.148;12.174;2023-01-30T10:33:54;100009.38;;;7.14;100.00
53514;BME280;39768;54.148;12.174;2023-01-30T10:38:38;100002.06;;;7.37;100.00
53514;BME280;39768;54.148;12.174;2023-01-30T10:47:23;99986.91;;;7.53;100.00
53514;BME280;39768;54.148;12.174;2023-01-30T10:52:29;99978.28;;;8.00;100.00
53514;BME280;39768;54.148;12.174;2023-01-30T11:05:44;99956.31;;;8.49;100.00
53514;BME280;39768;54.148;12.174;2023-01-30T11:10:31;99960.97;;;8.35;100.00
53514;BME280;39768;54.148;12.174;2023-01-30T11:15:00;99959.22;;;8.35;100.00
53514;BME280;39768;54.148;12.174;2023-01-30T11:19:15;99950.47;;;8.30;100.00
53514;BME280;39768;54.148;12.174;2023-01-30T11:23:25;99942.97;;;8.03;100.00
53514;BME280;39768;54.148;12.174;2023-01-30T11:27:29;99943.50;;;8.25;100.00
53514;BME280;39768;54.148;12.174;2023-01-30T11:31:31;99931.16;;;8.25;100.00
53514;BME280;39768;54.148;12.174;2023-01-30T11:35:51;99953.16;;;8.29;100.00
53514;BME280;39768;54.148;12.174;2023-01-30T11:39:54;99914.94;;;8.46;100.00
53514;BME280;39768;54.148;12.174;2023-01-30T11:44:01;99908.34;;;8.18;100.00
53514;BME280;39768;54.148;12.174;2023-01-30T11:48:12;99904.22;;;8.03;100.00
53514;BME280;39768;54.148;12.174;2023-01-30T11:52:35;99909.41;;;8.09;100.00
53514;BME280;39768;54.148;12.174;2023-01-30T11:56:45;99924.47;;;8.04;100.00
53514;BME280;39768;54.148;12.174;2023-01-30T12:00:49;99907.41;;;7.70;100.00
53514;BME280;39768;54.148;12.174;2023-01-30T12:05:00;99903.06;;;7.66;100.00
53514;BME280;39768;54.148;12.174;2023-01-30T12:09:05;99922.84;;;7.37;100.00
53514;BME280;39768;54.148;12.174;2023-01-30T12:21:46;99936.09;;;7.33;100.00
53514;BME280;39768;54.148;12.174;2023-01-30T12:26:00;99928.72;;;7.58;100.00
53514;BME280;39768;54.148;12.174;2023-01-30T12:30:22;99920.84;;;7.56;100.00
53514;BME280;39768;54.148;12.174;2023-01-30T12:34:26;99928.47;;;7.73;100.00
53514;BME280;39768;54.148;12.174;2023-01-30T12:46:58;99963.19;;;7.47;100.00
53514;BME280;39768;54.148;12.174;2023-01-30T12:51:43;99959.56;;;7.56;100.00
53514;BME280;39768;54.148;12.174;2023-01-30T13:00:31;99949.94;;;8.08;100.00
53514;BME280;39768;54.148;12.174;2023-01-30T13:04:46;99945.22;;;8.27;100.00
53514;BME280;39768;54.148;12.174;2023-01-30T13:21:43;99990.63;;;8.00;100.00
53514;BME280;39768;54.148;12.174;2023-01-30T13:29:52;99989.16;;;7.79;100.00
53514;BME280;39768;54.148;12.174;2023-01-30T13:34:21;99990.28;;;7.61;100.00
53514;BME280;39768;54.148;12.174;2023-01-30T13:38:26;99983.91;;;7.76;100.00
53514;BME280;39768;54.148;12.174;2023-01-30T13:42:48;99995.94;;;7.97;100.00
53514;BME280;39768;54.148;12.174;2023-01-30T13:46:52;99982.63;;;8.03;100.00
53514;BME280;39768;54.148;12.174;2023-01-30T13:51:06;99986.97;;;8.07;100.00
53514;BME280;39768;54.148;12.174;2023-01-30T13:55:25;100013.53;;;8.01;100.00
53514;BME280;39768;54.148;12.174;2023-01-30T14:04:41;100039.09;;;7.99;100.00
53514;BME280;39768;54.148;12.174;2023-01-30T14:12:45;100037.41;;;7.93;100.00
53514;BME280;39768;54.148;12.174;2023-01-30T14:16:50;100026.06;;;7.85;100.00
53514;BME280;39768;54.148;12.174;2023-01-30T14:21:11;100036.66;;;7.85;100.00
53514;BME280;39768;54.148;12.174;2023-01-30T14:25:30;100041.97;;;7.82;100.00
53514;BME280;39768;54.148;12.174;2023-01-30T14:33:49;100049.91;;;7.82;100.00
53514;BME280;39768;54.148;12.174;2023-01-30T14:38:10;100050.97;;;7.67;100.00
53514;BME280;39768;54.148;12.174;2023-01-30T14:42:23;100079.09;;;7.71;100.00
53514;BME280;39768;54.148;12.174;2023-01-30T14:51:44;100096.25;;;7.34;100.00
53514;BME280;39768;54.148;12.174;2023-01-30T14:57:02;100088.22;;;7.43;100.00
53514;BME280;39768;54.148;12.174;2023-01-30T15:01:25;100082.91;;;7.48;100.00
53514;BME280;39768;54.148;12.174;2023-01-30T15:07:21;100081.25;;;7.40;100.00
53514;BME280;39768;54.148;12.174;2023-01-30T15:22:31;100114.50;;;7.57;100.00
53514;BME280;39768;54.148;12.174;2023-01-30T15:58:17;100210.09;;;7.88;100.00
53514;BME280;39768;54.148;12.174;2023-01-30T16:02:54;100218.16;;;7.77;100.00
53514;BME280;39768;54.148;12.174;2023-01-30T16:06:56;100220.00;;;7.70;100.00
53514;BME280;39768;54.148;12.174;2023-01-30T16:10:58;100233.16;;;7.73;100.00
53514;BME280;39768;54.148;12.174;2023-01-30T16:15:04;100242.84;;;7.73;100.00
53514;BME280;39768;54.148;12.174;2023-01-30T16:19:46;100260.59;;;7.57;100.00
53514;BME280;39768;54.148;12.174;2023-01-30T16:24:03;100274.66;;;7.61;100.00
53514;BME280;39768;54.148;12.174;2023-01-30T16:28:06;100282.63;;;7.58;100.00
53514;BME280;39768;54.148;12.174;2023-01-30T16:32:12;100304.69;;;7.52;100.00
53514;BME280;39768;54.148;12.174;2023-01-30T16:40:27;100322.25;;;7.58;100.00
53514;BME280;39768;54.148;12.174;2023-01-30T16:44:32;100332.16;;;7.28;100.00
53514;BME280;39768;54.148;12.174;2023-01-30T16:48:34;100339.03;;;7.52;100.00
53514;BME280;39768;54.148;12.174;2023-01-30T16:52:43;100348.75;;;7.46;100.00
53514;BME280;39768;54.148;12.174;2023-01-30T17:01:38;100378.84;;;7.23;100.00
53514;BME280;39768;54.148;12.174;2023-01-30T17:05:45;100377.00;;;7.31;100.00
53514;BME280;39768;54.148;12.174;2023-01-30T17:09:53;100396.31;;;7.42;100.00
53514;BME280;39768;54.148;12.174;2023-01-30T17:18:15;100432.47;;;7.30;100.00
53514;BME280;39768;54.148;12.174;2023-01-30T17:22:17;100437.72;;;7.37;100.00
53514;BME280;39768;54.148;12.174;2023-01-30T17:26:21;100443.03;;;7.28;100.00
53514;BME280;39768;54.148;12.174;2023-01-30T17:30:23;100453.59;;;7.30;100.00
53514;BME280;39768;54.148;12.174;2023-01-30T17:34:24;100477.41;;;7.25;100.00
53514;BME280;39768;54.148;12.174;2023-01-30T17:38:29;100486.19;;;7.21;100.00
53514;BME280;39768;54.148;12.174;2023-01-30T17:42:31;100491.47;;;7.23;100.00
53514;BME280;39768;54.148;12.174;2023-01-30T17:46:36;100486.22;;;7.18;100.00
53514;BME280;39768;54.148;12.174;2023-01-30T17:50:39;100494.13;;;7.18;100.00
53514;BME280;39768;54.148;12.174;2023-01-30T17:54:40;100504.69;;;7.15;100.00
53514;BME280;39768;54.148;12.174;2023-01-30T17:58:45;100542.50;;;7.26;100.00
53514;BME280;39768;54.148;12.174;2023-01-30T18:02:47;100539.84;;;7.28;100.00
53514;BME280;39768;54.148;12.174;2023-01-30T18:06:52;100540.75;;;7.13;100.00
53514;BME280;39768;54.148;12.174;2023-01-30T18:10:58;100533.72;;;7.20;100.00
53514;BME280;39768;54.148;12.174;2023-01-30T18:15:16;100532.88;;;7.01;99.78
53514;BME280;39768;54.148;12.174;2023-01-30T18:19:26;100567.16;;;7.16;98.74
53514;BME280;39768;54.148;12.174;2023-01-30T18:23:35;100559.28;;;7.08;99.78
53514;BME280;39768;54.148;12.174;2023-01-30T18:28:10;100591.81;;;7.00;100.00
53514;BME280;39768;54.148;12.174;2023-01-30T18:32:19;100607.69;;;6.95;100.00
53514;BME280;39768;54.148;12.174;2023-01-30T18:36:22;100596.25;;;6.95;100.00
53514;BME280;39768;54.148;12.174;2023-01-30T18:40:28;100612.97;;;6.89;100.00
53514;BME280;39768;54.148;12.174;2023-01-30T18:44:30;100634.06;;;6.86;100.00
53514;BME280;39768;54.148;12.174;2023-01-30T18:48:33;100636.72;;;6.86;100.00
53514;BME280;39768;54.148;12.174;2023-01-30T18:53:14;100641.13;;;6.77;100.00
53514;BME280;39768;54.148;12.174;2023-01-30T18:57:23;100658.69;;;6.90;100.00
53514;BME280;39768;54.148;12.174;2023-01-30T19:01:34;100659.59;;;6.78;100.00
53514;BME280;39768;54.148;12.174;2023-01-30T19:05:37;100655.19;;;6.82;100.00
53514;BME280;39768;54.148;12.174;2023-01-30T19:09:41;100658.69;;;6.85;100.00
53514;BME280;39768;54.148;12.174;2023-01-30T19:13:58;100680.69;;;6.80;100.00
53514;BME280;39768;54.148;12.174;2023-01-30T19:18:25;100701.78;;;6.73;100.00
53514;BME280;39768;54.148;12.174;2023-01-30T19:23:01;100704.44;;;6.67;100.00
53514;BME280;39768;54.148;12.174;2023-01-30T19:27:13;100705.31;;;6.65;100.00
53514;BME280;39768;54.148;12.174;2023-01-30T19:31:21;100723.75;;;6.71;100.00
53514;BME280;39768;54.148;12.174;2023-01-30T19:35:23;100714.94;;;6.60;100.00
53514;BME280;39768;54.148;12.174;2023-01-30T19:39:32;100732.53;;;6.58;100.00
53514;BME280;39768;54.148;12.174;2023-01-30T19:43:36;100757.13;;;6.57;100.00
53514;BME280;39768;54.148;12.174;2023-01-30T19:47:46;100750.06;;;6.41;100.00
53514;BME280;39768;54.148;12.174;2023-01-30T19:52:01;100750.94;;;6.44;100.00
53514;BME280;39768;54.148;12.174;2023-01-30T19:56:04;100751.81;;;6.37;100.00
53514;BME280;39768;54.148;12.174;2023-01-30T20:05:17;100766.75;;;6.40;100.00
53514;BME280;39768;54.148;12.174;2023-01-30T20:09:23;100764.97;;;6.29;100.00
53514;BME280;39768;54.148;12.174;2023-01-30T20:13:36;100767.56;;;6.20;100.00
53514;BME280;39768;54.148;12.174;2023-01-30T20:17:38;100784.22;;;6.13;100.00
53514;BME280;39768;54.148;12.174;2023-01-30T20:21:49;100787.88;;;6.38;100.00
53514;BME280;39768;54.148;12.174;2023-01-30T20:26:08;100793.06;;;6.26;100.00
53514;BME280;39768;54.148;12.174;2023-01-30T20:30:40;100798.34;;;6.23;100.00
53514;BME280;39768;54.148;12.174;2023-01-30T20:35:18;100810.63;;;6.24;100.00
53514;BME280;39768;54.148;12.174;2023-01-30T20:39:34;100836.97;;;6.25;100.00
53514;BME280;39768;54.148;12.174;2023-01-30T20:44:12;100846.66;;;6.25;100.00
53514;BME280;39768;54.148;12.174;2023-01-30T20:48:42;100846.72;;;6.34;100.00
53514;BME280;39768;54.148;12.174;2023-01-30T20:53:05;100873.84;;;6.18;100.00
53514;BME280;39768;54.148;12.174;2023-01-30T20:57:23;100865.06;;;6.16;100.00
53514;BME280;39768;54.148;12.174;2023-01-30T21:01:25;100865.09;;;6.22;100.00
53514;BME280;39768;54.148;12.174;2023-01-30T21:05:29;100876.50;;;6.24;100.00
53514;BME280;39768;54.148;12.174;2023-01-30T21:09:31;100891.44;;;6.23;100.00
53514;BME280;39768;54.148;12.174;2023-01-30T21:13:33;100890.53;;;6.14;100.00
53514;BME280;39768;54.148;12.174;2023-01-30T21:17:35;100904.59;;;6.16;100.00
53514;BME280;39768;54.148;12.174;2023-01-30T21:21:41;100906.41;;;6.21;100.00
53514;BME280;39768;54.148;12.174;2023-01-30T21:25:43;100909.03;;;6.21;100.00
53514;BME280;39768;54.148;12.174;2023-01-30T21:29:44;100911.66;;;6.20;100.00
53514;BME280;39768;54.148;12.174;2023-01-30T21:33:48;100910.84;;;6.33;100.00
53514;BME280;39768;54.148;12.174;2023-01-30T21:37:49;100914.41;;;6.36;100.00
53514;BME280;39768;54.148;12.174;2023-01-30T21:42:10;100909.88;;;6.16;100.00
53514;BME280;39768;54.148;12.174;2023-01-30T21:46:32;100925.78;;;6.32;100.00
53514;BME280;39768;54.148;12.174;2023-01-30T21:50:34;100943.38;;;6.33;100.00
53514;BME280;39768;54.148;12.174;2023-01-30T21:54:37;100954.81;;;6.34;100.00
53514;BME280;39768;54.148;12.174;2023-01-30T21:58:39;100962.81;;;6.48;100.00
53514;BME280;39768;54.148;12.174;2023-01-30T22:02:40;100965.44;;;6.48;100.00
53514;BME280;39768;54.148;12.174;2023-01-30T22:06:42;100980.34;;;6.44;100.00
53514;BME280;39768;54.148;12.174;2023-01-30T22:10:44;100988.34;;;6.55;100.00
53514;BME280;39768;54.148;12.174;2023-01-30T22:14:45;100991.84;;;6.49;100.00
53514;BME280;39768;54.148;12.174;2023-01-30T22:18:52;101005.03;;;6.55;100.00
53514;BME280;39768;54.148;12.174;2023-01-30T22:22:54;101011.19;;;6.51;100.00
53514;BME280;39768;54.148;12.174;2023-01-30T22:26:56;101012.13;;;6.61;100.00
53514;BME280;39768;54.148;12.174;2023-01-30T22:31:06;101006.78;;;6.50;100.00
53514;BME280;39768;54.148;12.174;2023-01-30T22:35:13;101016.47;;;6.51;100.00
53514;BME280;39768;54.148;12.174;2023-01-30T22:39:19;101019.09;;;6.51;100.00
53514;BME280;39768;54.148;12.174;2023-01-30T22:43:21;101025.16;;;6.43;100.00
53514;BME280;39768;54.148;12.174;2023-01-30T22:47:22;101039.31;;;6.51;100.00
53514;BME280;39768;54.148;12.174;2023-01-30T22:51:29;101037.66;;;6.65;100.00
53514;BME280;39768;54.148;12.174;2023-01-30T22:55:31;101042.06;;;6.64;100.00
53514;BME280;39768;54.148;12.174;2023-01-30T22:59:37;101048.16;;;6.60;100.00
53514;BME280;39768;54.148;12.174;2023-01-30T23:03:41;101054.25;;;6.50;100.00
53514;BME280;39768;54.148;12.174;2023-01-30T23:07:54;101054.25;;;6.50;100.00
53514;BME280;39768;54.148;12.174;2023-01-30T23:11:56;101053.28;;;6.41;100.00
53514;BME280;39768;54.148;12.174;2023-01-30T23:16:26;101061.25;;;6.47;100.00
53514;BME280;39768;54.148;12.174;2023-01-30T23:20:32;101070.16;;;6.61;100.00
53514;BME280;39768;54.148;12.174;2023-01-30T23:24:45;101079.81;;;6.60;100.00
53514;BME280;39768;54.148;12.174;2023-01-30T23:28:55;101079.84;;;6.63;100.00
53514;BME280;39768;54.148;12.174;2023-01-30T23:32:57;101091.94;;;6.38;100.00
53514;BME280;39768;54.148;12.174;2023-01-30T23:36:58;101085.75;;;6.32;100.00
53514;BME280;39768;54.148;12.174;2023-01-30T23:41:08;101095.38;;;6.28;100.00
53514;BME280;39768;54.148;12.174;2023-01-30T23:45:10;101105.97;;;6.34;100.00
53514;BME280;39768;54.148;12.174;2023-01-30T23:49:13;101099.84;;;6.37;100.00
53514;BME280;39768;54.148;12.174;2023-01-30T23:53:21;101108.66;;;6.42;100.00
53514;BME280;39768;54.148;12.174;2023-01-30T23:58:37;101090.09;;;6.30;100.00
